Valikko       Alkaa   X °C

Select another period ( hide this area )

Units Period Custom range Directly to
Metric English Both
Daily Weekly Monthly Yearly
use both date-selectors for a custom range
previous Day
With this date
Daily Summary for Sunday 21 July 2024
Time Temp. ( °F ) Dew pt. ( °F ) Wind ( mph ) From Gust ( mph ) Pressure ( in ) Humid.( % ) Rainrate ( in )
High81.0 76.6 4.0 East ( 13/39 ) 5.0 30.05 99 0.33
Average72.0 70.7 0.2 Calm #163/192 0.4 30.00 96 0.20
Low68.4 68.0 -   0.0 29.97 83 -
Daily Tabular details for Sunday 21 July 2024
Time Temp. ( °F ) Dew pt. ( °F ) Wind ( mph ) From Gust ( mph ) Pressure ( in ) Humid.( % ) Rainrate ( in )
00:04 71.1 69.6 1.0 SE 1.0 30.05 97 -
00:09 71.4 69.4 3.0 ENE 5.0 30.05 95 -
00:14 71.8 69.4 3.0 NNE 3.0 30.05 93 -
00:19 71.8 69.4 2.0 ENE 2.0 30.05 92 -
00:24 71.8 69.1 4.0 East 5.0 30.05 91 -
00:29 71.8 69.1 2.0 SW 3.0 30.05 91 -
00:34 71.6 69.1 2.0 East 2.0 30.05 92 -
00:39 71.2 68.9 1.0 East 2.0 30.04 94 0.05
00:44 70.5 69.1 1.0 East 2.0 30.04 96 0.05
00:49 69.8 68.9 1.0 East 2.0 30.04 97 0.05
00:54 69.3 68.7 1.0 East 2.0 30.04 98 0.09
00:59 69.1 68.5 1.0 East 2.0 30.04 99 0.12
01:04 68.7 68.4 1.0 East 1.0 30.04 99 0.12
01:09 68.4 68.0   Calm 1.0 30.04 99 0.05
01:14 68.5 68.2   Calm   30.04 99 0.09
01:19 68.5 68.2   Calm   30.05 99 0.12
01:24 68.5 68.2   Calm   30.05 99 0.17
01:29 68.4 68.0   Calm   30.05 99 0.17
01:34 68.4 68.0   Calm   30.04 99 0.17
01:39 68.4 68.0   Calm 1.0 30.04 99 0.12
01:44 68.4 68.0   Calm   30.04 99 -
01:49 68.4 68.0   Calm   30.05 99 -
01:54 68.5 68.2   Calm   30.05 99 -
01:59 68.5 68.2   Calm   30.04 99 -
02:04 68.5 68.2   Calm   30.05 99 -
02:09 68.4 68.0   Calm   30.04 99 -
02:14 68.4 68.0   Calm   30.04 99 -
02:19 68.4 68.0   Calm   30.04 99 -
02:24 68.5 68.2   Calm   30.04 99 -
02:29 68.5 68.2   Calm   30.04 99 -
02:34 68.5 68.2   Calm   30.04 99 0.05
02:39 68.5 68.2   Calm   30.03 99 0.05
02:44 68.5 68.2   Calm   30.03 99 0.05
02:49 68.5 68.2   Calm   30.03 99 -
02:54 68.5 68.2   Calm   30.03 99 -
02:59 68.5 68.2   Calm   30.03 99 -
03:04 68.5 68.2   Calm   30.02 99 -
03:09 68.5 68.2   Calm   30.02 99 -
03:14 68.5 68.2   Calm   30.03 99 0.12
03:19 68.7 68.4   Calm   30.02 99 0.17
03:24 68.7 68.4   Calm   30.02 99 0.17
03:29 68.7 68.4   Calm   30.02 99 -
03:34 68.7 68.4   Calm   30.02 99 -
03:39 68.7 68.4   Calm   30.02 99 0.05
03:44 68.7 68.4   Calm   30.02 99 0.09
03:49 68.7 68.4   Calm   30.02 99 0.17
03:54 68.7 68.4   Calm   30.02 99 0.12
03:59 68.5 68.2   Calm   30.01 99 0.12
04:04 68.7 68.4   Calm   30.01 99 0.05
04:09 68.7 68.4   Calm   30.01 99 0.05
04:14 68.5 68.2   Calm   30.01 99 0.05
04:19 68.5 68.2   Calm   30.01 99 0.05
04:24 68.7 68.4   Calm   30.01 99 -
04:29 68.7 68.4   Calm   30.01 99 -
04:34 68.7 68.4   Calm 1.0 30.01 99 -
04:39 68.7 68.4   Calm   30.01 99 -
04:44 68.7 68.4   Calm   30.01 99 -
04:49 68.7 68.4   Calm   30.01 99 -
04:54 68.7 68.4   Calm 1.0 30.01 99 -
04:59 68.7 68.4   Calm 1.0 30.01 99 -
05:04 68.7 68.4   Calm 1.0 30.01 99 -
05:09 68.7 68.4 1.0 East 1.0 30.01 99 -
05:14 68.7 68.4   Calm   30.01 99 -
05:19 68.7 68.4   Calm   30.02 99 -
05:24 68.7 68.4   Calm   30.02 99 0.12
05:29 68.7 68.4   Calm   30.02 99 0.12
05:34 68.7 68.4   Calm   30.02 99 0.05
05:39 68.7 68.4   Calm   30.02 99 -
05:44 68.7 68.4   Calm   30.02 99 0.05
05:49 68.7 68.4   Calm   30.02 99 0.05
05:54 68.7 68.4   Calm   30.02 99 0.12
05:59 68.7 68.4   Calm   30.02 99 0.12
06:04 68.7 68.4   Calm   30.02 99 0.12
06:09 68.7 68.4   Calm   30.02 99 -
06:14 68.7 68.4   Calm   30.02 99 -
06:19 68.7 68.4   Calm   30.02 99 0.17
06:24 68.9 68.5   Calm   30.02 99 0.21
06:29 68.9 68.5   Calm   30.02 99 0.21
06:34 68.7 68.4   Calm 1.0 30.02 99 0.05
06:39 68.7 68.4   Calm   30.01 99 -
06:44 68.7 68.4   Calm   30.02 99 0.09
06:49 68.7 68.4   Calm   30.02 99 0.26
06:54 68.7 68.4   Calm   30.02 99 0.33
06:59 68.7 68.4   Calm   30.02 99 0.26
07:04 68.7 68.4   Calm   30.02 99 0.17
07:09 68.7 68.4   Calm   30.02 99 0.05
07:14 68.9 68.5   Calm   30.03 99 0.07
07:19 68.9 68.5   Calm   30.03 99 0.07
07:24 68.9 68.5   Calm   30.03 99 0.12
07:29 68.9 68.5   Calm   30.03 99 0.05
07:34 68.9 68.5   Calm   30.03 99 -
07:39 69.1 68.7   Calm   30.03 99 -
07:44 69.1 68.7   Calm   30.02 99 -
07:49 69.3 68.9 1.0 SE 1.0 30.03 99 -
07:54 69.3 68.9   Calm 1.0 30.03 99 0.12
07:59 69.4 69.1   Calm 1.0 30.03 99 0.21
08:04 69.4 69.1   Calm 1.0 30.03 99 0.21
08:09 69.6 69.3 1.0 SE 1.0 30.03 99 0.05
08:14 69.8 69.4   Calm 1.0 30.03 99 0.17
08:19 69.8 69.4   Calm   30.04 99 0.28
08:24 69.8 69.4   Calm   30.04 99 0.28
08:29 70.0 69.6   Calm 1.0 30.04 99 0.12
08:34 70.0 69.6   Calm   30.04 99 -
08:39 70.0 69.6   Calm   30.04 99 -
08:44 70.0 69.6   Calm   30.04 99 -
08:49 70.2 69.8   Calm   30.04 99 -
08:54 70.3 70.0   Calm   30.04 99 -
08:59 70.5 70.2   Calm   30.04 99 -
09:04 70.7 70.3   Calm   30.04 99 -
09:09 70.9 70.5   Calm   30.04 99 -
09:14 71.1 70.7   Calm   30.04 99 -
09:19 71.1 70.7   Calm   30.03 99 -
09:24 71.1 70.7   Calm   30.03 99 -
09:29 71.2 70.9   Calm   30.03 99 -
09:34 71.2 70.9   Calm   30.04 99 -
09:39 71.2 70.9   Calm   30.04 99 -
09:44 71.2 70.9   Calm   30.04 99 -
09:49 71.2 70.9   Calm   30.04 99 -
09:54 71.4 71.1   Calm   30.04 99 -
09:59 71.8 71.4   Calm   30.04 99 -
10:04 72.1 71.8   Calm   30.04 99 -
10:09 72.1 71.8   Calm   30.05 99 -
10:14 72.0 71.6   Calm   30.04 99 -
10:19 72.0 71.6   Calm   30.04 99 -
10:24 72.5 72.1   Calm 1.0 30.04 99 -
10:29 72.3 72.0   Calm   30.04 99 -
10:34 72.3 72.0   Calm   30.04 99 -
10:39 72.3 72.0   Calm   30.04 99 -
10:44 72.7 72.3   Calm   30.03 99 -
10:49 72.7 72.3   Calm   30.04 99 -
10:54 72.5 72.1   Calm   30.04 99 -
10:59 72.7 72.3   Calm   30.04 99 -
11:04 72.7 72.3   Calm   30.04 99 -
11:09 73.0 72.7   Calm   30.04 99 -
11:14 73.8 73.4   Calm   30.03 99 -
11:19 73.9 73.6 1.0 South 1.0 30.04 99 -
11:24 74.1 73.8   Calm   30.04 99 -
11:29 73.8 73.4   Calm 1.0 30.04 99 -
11:34 73.6 73.2   Calm 1.0 30.04 99 -
11:39 73.8 73.4 1.0 South 1.0 30.04 99 -
11:44 73.0 72.7 1.0 South 1.0 30.04 99 -
11:49 73.0 72.7   Calm   30.03 99 -
11:54 73.6 73.2 1.0 South 1.0 30.04 99 -
11:59 73.6 73.2   Calm   30.04 99 -
12:04 74.3 73.9   Calm   30.04 99 -
12:09 74.5 74.1   Calm   30.04 99 -
12:14 74.7 74.3   Calm   30.04 99 -
12:19 74.7 74.3   Calm   30.04 99 -
12:24 74.7 74.3 1.0 South 1.0 30.04 99 -
12:29 75.2 74.8 1.0 South 1.0 30.04 99 -
12:34 75.2 74.8   Calm 1.0 30.04 99 -
12:39 75.4 74.8 1.0 South 1.0 30.04 99 -
12:44 76.1 74.8   Calm 1.0 30.04 96 -
12:49 76.5 74.8   Calm 1.0 30.03 95 -
12:54 76.3 74.3   Calm   30.03 94 -
12:59 77.2 75.0 1.0 South 1.0 30.04 93 -
13:04 77.7 74.5   Calm 1.0 30.03 91 -
13:09 77.9 75.6   Calm 1.0 30.03 92 -
13:14 78.6 75.0   Calm 1.0 30.02 90 -
13:19 79.0 75.9   Calm 1.0 30.02 91 -
13:24 79.7 76.6 1.0 South 1.0 30.02 91 -
13:29 79.7 76.1   Calm 1.0 30.02 89 -
13:34 79.7 75.7   Calm 1.0 30.01 88 -
13:39 79.2 75.0 1.0 South 1.0 30.02 88 -
13:44 78.3 73.8   Calm 1.0 30.02 86 -
13:49 77.9 73.8   Calm   30.02 87 -
13:54 77.9 74.1   Calm   30.01 88 -
13:59 77.7 73.8   Calm   30.00 88 -
14:04 77.5 73.8 1.0 South 1.0 30.00 88 -
14:09 78.3 74.1 1.0 South 1.0 30.00 88 -
14:14 78.3 74.3   Calm 1.0 30.00 88 -
14:19 78.4 74.8   Calm 1.0 30.00 89 -
14:24 78.8 74.3   Calm   30.00 87 -
14:29 78.8 74.3   Calm 1.0 30.00 86 -
14:34 79.0 73.4   Calm   29.99 83 -
14:39 79.0 73.8   Calm   29.99 84 -
14:44 78.8 73.9   Calm   30.00 85 -
14:49 79.9 74.7   Calm   29.99 85 -
14:54 80.2 75.7   Calm   29.99 86 -
14:59 79.9 74.8   Calm   29.99 86 -
15:04 79.2 74.7   Calm   30.00 86 -
15:09 79.3 74.1   Calm   29.99 84 -
15:14 79.3 74.3   Calm   29.99 86 -
15:19 79.0 74.8   Calm   29.99 87 -
15:24 79.7 75.0   Calm   29.98 87 -
15:29 80.2 74.7   Calm 1.0 29.99 84 -
15:34 80.8 75.2   Calm 1.0 29.98 83 -
15:39 81.0 75.7   Calm   29.98 84 -
15:44 81.0 75.4   Calm 1.0 29.98 83 -
15:49 81.0 75.6   Calm 1.0 29.98 84 -
15:54 80.8 75.6   Calm 1.0 29.97 85 -
15:59 80.4 75.2 1.0 South 1.0 29.98 84 -

Download your copy of this data-set  from WeatherUnderground

Our weather-data as stored at Weather Underground

Original Weather Page

My Ham Radio Page